This is the latest recevied weather packets stored in our database for station/object K1JO. If no packets are shown the sender has not sent any weather packets the latest 10 day(s).
| Time | Temp. | Humidity | Pressure | Rain* | Wind** | Luminosity | Snow |
|---|---|---|---|---|---|---|---|
| 1777123904 | 9.44° C | 65% | 1014 hPa | 0 mm | - | 539 W/m² | - |
| 1777123600 | 9.44° C | 65% | 1014 hPa | 0 mm | - | 539 W/m² | - |
| 1777123296 | 8.89° C | 69% | 1014.1 hPa | 0 mm | - | 520 W/m² | - |
| 1777122993 | 8.89° C | 66% | 1014.1 hPa | 0 mm | - | 509 W/m² | - |
| 1777122689 | 8.89° C | 67% | 1014.3 hPa | 0 mm | - | 492 W/m² | - |
| 1777122384 | 8.89° C | 66% | 1014 hPa | 0 mm | - | 487 W/m² | - |
| 1777122081 | 8.33° C | 68% | 1014.2 hPa | 0 mm | - | 281 W/m² | - |
| 1777121778 | 8.33° C | 68% | 1014.4 hPa | 0 mm | - | 281 W/m² | - |
| 1777121475 | 8.33° C | 69% | 1014.4 hPa | 0 mm | - | 435 W/m² | - |
| 1777121174 | 8.33° C | 68% | 1014.4 hPa | 0 mm | - | 405 W/m² | - |
| 1777120872 | 7.78° C | 69% | 1014.4 hPa | 0 mm | - | 377 W/m² | - |
| 1777120569 | 7.78° C | 69% | 1014.4 hPa | 0 mm | - | 377 W/m² | - |
| 1777120264 | 7.78° C | 69% | 1014.4 hPa | 0 mm | - | 377 W/m² | - |
| 1777119959 | 7.78° C | 70% | 1014.5 hPa | 0 mm | - | 362 W/m² | - |
| 1777119656 | 6.67° C | 70% | 1014.4 hPa | 0 mm | - | 254 W/m² | - |
| 1777119351 | 6.67° C | 70% | 1014.5 hPa | 0 mm | - | 254 W/m² | - |
| 1777119046 | 6.67° C | 70% | 1014.6 hPa | 0 mm | - | 254 W/m² | - |
| 1777118741 | 6.67° C | 70% | 1014.4 hPa | 0 mm | - | 254 W/m² | - |
| 1777118438 | 6.67° C | 70% | 1014.6 hPa | 0 mm | - | 254 W/m² | - |
| 1777118134 | 6.67° C | 70% | 1014.6 hPa | 0 mm | - | 254 W/m² | - |
| 1777117831 | 6.67° C | 70% | 1014.5 hPa | 0 mm | - | 254 W/m² | - |
| 1777117528 | 6.11° C | 74% | 1014.5 hPa | 0 mm | - | 216 W/m² | - |
| 1777116925 | 5.56° C | 76% | 1014.6 hPa | 0 mm | - | 175 W/m² | - |
| 1777116622 | 5.56° C | 76% | 1014.3 hPa | 0 mm | - | 175 W/m² | - |
| 1777116317 | 5.56° C | 76% | 1014.3 hPa | 0 mm | - | 175 W/m² | - |
* Rain latest hour (hover to see other rain measurements)
** Current wind speed in m/s (hover to see current wind gust speed)